sensor_id;sensor_type;location;lat;lon;timestamp;temperature;humidity
22456;DHT22;11395;53.204;6.502;2023-05-23T00:02:12;23.80;67.60
22456;DHT22;11395;53.204;6.502;2023-05-23T00:04:38;23.70;67.60
22456;DHT22;11395;53.204;6.502;2023-05-23T00:07:04;23.70;67.60
22456;DHT22;11395;53.204;6.502;2023-05-23T00:09:30;23.70;67.70
22456;DHT22;11395;53.204;6.502;2023-05-23T00:11:57;23.70;67.80
22456;DHT22;11395;53.204;6.502;2023-05-23T00:14:23;23.70;67.80
22456;DHT22;11395;53.204;6.502;2023-05-23T00:16:49;23.70;67.80
22456;DHT22;11395;53.204;6.502;2023-05-23T00:19:15;23.70;67.80
22456;DHT22;11395;53.204;6.502;2023-05-23T00:21:42;23.70;67.80
22456;DHT22;11395;53.204;6.502;2023-05-23T00:24:09;23.60;67.80
22456;DHT22;11395;53.204;6.502;2023-05-23T00:26:35;23.60;67.80
22456;DHT22;11395;53.204;6.502;2023-05-23T00:29:02;23.60;67.90
22456;DHT22;11395;53.204;6.502;2023-05-23T00:31:28;23.60;67.80
22456;DHT22;11395;53.204;6.502;2023-05-23T00:33:54;23.60;67.80
22456;DHT22;11395;53.204;6.502;2023-05-23T00:36:21;23.60;67.90
22456;DHT22;11395;53.204;6.502;2023-05-23T00:38:49;23.60;67.90
22456;DHT22;11395;53.204;6.502;2023-05-23T00:41:15;23.50;67.90
22456;DHT22;11395;53.204;6.502;2023-05-23T00:43:43;23.50;67.90
22456;DHT22;11395;53.204;6.502;2023-05-23T00:46:09;23.50;67.90
22456;DHT22;11395;53.204;6.502;2023-05-23T00:48:36;23.50;67.80
22456;DHT22;11395;53.204;6.502;2023-05-23T00:51:03;23.50;67.90
22456;DHT22;11395;53.204;6.502;2023-05-23T00:53:30;23.50;67.90
22456;DHT22;11395;53.204;6.502;2023-05-23T00:55:56;23.50;67.90
22456;DHT22;11395;53.204;6.502;2023-05-23T00:58:22;23.50;67.90
22456;DHT22;11395;53.204;6.502;2023-05-23T01:00:49;23.50;67.90
22456;DHT22;11395;53.204;6.502;2023-05-23T01:03:19;23.40;67.90
22456;DHT22;11395;53.204;6.502;2023-05-23T01:05:45;23.40;67.70
22456;DHT22;11395;53.204;6.502;2023-05-23T01:08:11;23.40;67.70
22456;DHT22;11395;53.204;6.502;2023-05-23T01:10:37;23.40;67.80
22456;DHT22;11395;53.204;6.502;2023-05-23T01:13:46;23.40;67.80
22456;DHT22;11395;53.204;6.502;2023-05-23T01:16:17;23.40;67.80
22456;DHT22;11395;53.204;6.502;2023-05-23T01:18:53;23.30;67.80
22456;DHT22;11395;53.204;6.502;2023-05-23T01:21:23;23.40;67.80
22456;DHT22;11395;53.204;6.502;2023-05-23T01:27:07;23.30;67.80
22456;DHT22;11395;53.204;6.502;2023-05-23T01:29:42;23.30;67.80
22456;DHT22;11395;53.204;6.502;2023-05-23T01:32:11;23.30;67.90
22456;DHT22;11395;53.204;6.502;2023-05-23T01:34:39;23.30;67.90
22456;DHT22;11395;53.204;6.502;2023-05-23T01:37:10;23.30;68.00
22456;DHT22;11395;53.204;6.502;2023-05-23T01:39:37;23.30;67.90
22456;DHT22;11395;53.204;6.502;2023-05-23T01:42:04;23.30;67.90
22456;DHT22;11395;53.204;6.502;2023-05-23T01:44:33;23.30;67.90
22456;DHT22;11395;53.204;6.502;2023-05-23T01:47:02;23.30;67.90
22456;DHT22;11395;53.204;6.502;2023-05-23T01:49:29;23.20;67.80
22456;DHT22;11395;53.204;6.502;2023-05-23T01:51:58;23.20;67.90
22456;DHT22;11395;53.204;6.502;2023-05-23T01:54:25;23.20;67.90
22456;DHT22;11395;53.204;6.502;2023-05-23T01:56:56;23.20;67.90
22456;DHT22;11395;53.204;6.502;2023-05-23T01:59:22;23.20;67.90
22456;DHT22;11395;53.204;6.502;2023-05-23T02:01:49;23.20;67.90
22456;DHT22;11395;53.204;6.502;2023-05-23T02:04:15;23.20;67.90
22456;DHT22;11395;53.204;6.502;2023-05-23T02:06:41;23.20;67.90
22456;DHT22;11395;53.204;6.502;2023-05-23T02:09:12;23.20;67.80
22456;DHT22;11395;53.204;6.502;2023-05-23T02:11:38;23.20;67.90
22456;DHT22;11395;53.204;6.502;2023-05-23T02:14:05;23.10;67.60
22456;DHT22;11395;53.204;6.502;2023-05-23T02:16:31;23.10;67.70
22456;DHT22;11395;53.204;6.502;2023-05-23T02:18:58;23.10;67.70
22456;DHT22;11395;53.204;6.502;2023-05-23T02:21:24;23.10;67.70
22456;DHT22;11395;53.204;6.502;2023-05-23T02:23:51;23.10;67.80
22456;DHT22;11395;53.204;6.502;2023-05-23T02:26:17;23.10;67.90
22456;DHT22;11395;53.204;6.502;2023-05-23T02:28:43;23.00;67.80
22456;DHT22;11395;53.204;6.502;2023-05-23T02:31:09;23.10;67.90
22456;DHT22;11395;53.204;6.502;2023-05-23T02:33:36;23.00;67.80
22456;DHT22;11395;53.204;6.502;2023-05-23T02:36:02;23.00;67.80
22456;DHT22;11395;53.204;6.502;2023-05-23T02:38:29;23.00;67.90
22456;DHT22;11395;53.204;6.502;2023-05-23T02:40:56;23.00;67.90
22456;DHT22;11395;53.204;6.502;2023-05-23T02:43:22;23.00;67.90
22456;DHT22;11395;53.204;6.502;2023-05-23T02:45:49;22.90;67.80
22456;DHT22;11395;53.204;6.502;2023-05-23T02:48:15;22.90;67.80
22456;DHT22;11395;53.204;6.502;2023-05-23T02:50:41;22.90;67.80
22456;DHT22;11395;53.204;6.502;2023-05-23T02:53:07;22.90;67.80
22456;DHT22;11395;53.204;6.502;2023-05-23T02:55:34;22.90;67.80
22456;DHT22;11395;53.204;6.502;2023-05-23T02:58:00;22.90;67.80
22456;DHT22;11395;53.204;6.502;2023-05-23T03:00:26;22.90;67.80
22456;DHT22;11395;53.204;6.502;2023-05-23T03:02:55;22.90;67.90
22456;DHT22;11395;53.204;6.502;2023-05-23T03:05:22;22.90;67.90
22456;DHT22;11395;53.204;6.502;2023-05-23T03:07:48;22.90;67.80
22456;DHT22;11395;53.204;6.502;2023-05-23T03:10:14;22.80;67.80
22456;DHT22;11395;53.204;6.502;2023-05-23T03:12:40;22.90;67.90
22456;DHT22;11395;53.204;6.502;2023-05-23T03:15:07;22.80;67.80
22456;DHT22;11395;53.204;6.502;2023-05-23T03:17:36;22.80;67.80
22456;DHT22;11395;53.204;6.502;2023-05-23T03:20:02;22.80;67.80
22456;DHT22;11395;53.204;6.502;2023-05-23T03:22:29;22.80;67.80
22456;DHT22;11395;53.204;6.502;2023-05-23T03:24:55;22.80;67.80
22456;DHT22;11395;53.204;6.502;2023-05-23T03:27:21;22.80;67.80
22456;DHT22;11395;53.204;6.502;2023-05-23T03:29:48;22.80;67.90
22456;DHT22;11395;53.204;6.502;2023-05-23T03:32:14;22.80;67.90
22456;DHT22;11395;53.204;6.502;2023-05-23T03:34:40;22.70;67.90
22456;DHT22;11395;53.204;6.502;2023-05-23T03:37:06;22.70;67.90
22456;DHT22;11395;53.204;6.502;2023-05-23T03:39:32;22.70;67.90
22456;DHT22;11395;53.204;6.502;2023-05-23T03:41:59;22.70;67.90
22456;DHT22;11395;53.204;6.502;2023-05-23T03:44:25;22.70;67.90
22456;DHT22;11395;53.204;6.502;2023-05-23T03:46:51;22.70;67.80
22456;DHT22;11395;53.204;6.502;2023-05-23T03:49:17;22.70;67.70
22456;DHT22;11395;53.204;6.502;2023-05-23T03:51:43;22.70;67.70
22456;DHT22;11395;53.204;6.502;2023-05-23T03:54:14;22.70;67.70
22456;DHT22;11395;53.204;6.502;2023-05-23T03:56:42;22.70;67.80
22456;DHT22;11395;53.204;6.502;2023-05-23T03:59:08;22.80;67.90
22456;DHT22;11395;53.204;6.502;2023-05-23T04:01:35;22.60;68.60
22456;DHT22;11395;53.204;6.502;2023-05-23T04:04:01;22.60;67.80
22456;DHT22;11395;53.204;6.502;2023-05-23T04:06:31;22.50;67.70
22456;DHT22;11395;53.204;6.502;2023-05-23T04:08:58;22.60;67.70
22456;DHT22;11395;53.204;6.502;2023-05-23T04:11:25;22.60;67.70
22456;DHT22;11395;53.204;6.502;2023-05-23T04:13:51;22.60;67.80
22456;DHT22;11395;53.204;6.502;2023-05-23T04:16:18;22.60;67.80
22456;DHT22;11395;53.204;6.502;2023-05-23T04:18:44;22.50;67.80
22456;DHT22;11395;53.204;6.502;2023-05-23T04:21:12;22.50;67.70
22456;DHT22;11395;53.204;6.502;2023-05-23T04:23:48;22.50;67.70
22456;DHT22;11395;53.204;6.502;2023-05-23T04:26:14;22.60;67.60
22456;DHT22;11395;53.204;6.502;2023-05-23T04:28:47;22.70;67.50
22456;DHT22;11395;53.204;6.502;2023-05-23T04:31:14;22.80;67.30
22456;DHT22;11395;53.204;6.502;2023-05-23T04:33:41;22.80;67.00
22456;DHT22;11395;53.204;6.502;2023-05-23T04:36:08;23.00;66.80
22456;DHT22;11395;53.204;6.502;2023-05-23T04:38:35;23.10;66.70
22456;DHT22;11395;53.204;6.502;2023-05-23T04:41:04;23.20;66.40
22456;DHT22;11395;53.204;6.502;2023-05-23T04:43:55;23.30;66.30
22456;DHT22;11395;53.204;6.502;2023-05-23T04:46:31;23.40;66.00
22456;DHT22;11395;53.204;6.502;2023-05-23T04:49:13;23.50;65.70
22456;DHT22;11395;53.204;6.502;2023-05-23T04:51:40;23.50;65.50
22456;DHT22;11395;53.204;6.502;2023-05-23T04:54:16;23.70;65.40
22456;DHT22;11395;53.204;6.502;2023-05-23T04:56:42;23.80;65.10
22456;DHT22;11395;53.204;6.502;2023-05-23T04:59:08;23.90;64.90
22456;DHT22;11395;53.204;6.502;2023-05-23T05:01:36;23.90;64.60
22456;DHT22;11395;53.204;6.502;2023-05-23T05:04:06;23.90;64.60
22456;DHT22;11395;53.204;6.502;2023-05-23T05:06:33;24.00;64.50
22456;DHT22;11395;53.204;6.502;2023-05-23T05:08:59;24.00;64.20
22456;DHT22;11395;53.204;6.502;2023-05-23T05:11:25;24.10;64.30
22456;DHT22;11395;53.204;6.502;2023-05-23T05:13:53;24.10;64.20
22456;DHT22;11395;53.204;6.502;2023-05-23T05:16:20;24.10;64.00
22456;DHT22;11395;53.204;6.502;2023-05-23T05:18:48;24.10;64.30
22456;DHT22;11395;53.204;6.502;2023-05-23T05:21:14;24.20;63.90
22456;DHT22;11395;53.204;6.502;2023-05-23T05:23:40;24.10;64.00
22456;DHT22;11395;53.204;6.502;2023-05-23T05:26:08;24.20;63.80
22456;DHT22;11395;53.204;6.502;2023-05-23T05:28:34;24.20;63.60
22456;DHT22;11395;53.204;6.502;2023-05-23T05:31:00;24.20;63.70
22456;DHT22;11395;53.204;6.502;2023-05-23T05:33:30;24.20;63.60
22456;DHT22;11395;53.204;6.502;2023-05-23T05:36:08;24.20;63.60
22456;DHT22;11395;53.204;6.502;2023-05-23T05:38:35;24.20;63.60
22456;DHT22;11395;53.204;6.502;2023-05-23T05:41:01;24.20;63.60
22456;DHT22;11395;53.204;6.502;2023-05-23T05:43:32;24.20;63.60
22456;DHT22;11395;53.204;6.502;2023-05-23T05:45:58;24.20;63.60
22456;DHT22;11395;53.204;6.502;2023-05-23T05:48:24;24.10;63.40
22456;DHT22;11395;53.204;6.502;2023-05-23T05:50:53;24.20;63.40
22456;DHT22;11395;53.204;6.502;2023-05-23T05:53:19;24.20;63.40
22456;DHT22;11395;53.204;6.502;2023-05-23T05:55:45;24.10;63.40
22456;DHT22;11395;53.204;6.502;2023-05-23T05:58:11;24.10;63.50
22456;DHT22;11395;53.204;6.502;2023-05-23T06:00:49;24.10;63.50
22456;DHT22;11395;53.204;6.502;2023-05-23T06:03:15;24.10;63.40
22456;DHT22;11395;53.204;6.502;2023-05-23T06:05:49;24.00;63.00
22456;DHT22;11395;53.204;6.502;2023-05-23T06:08:15;24.00;63.30
22456;DHT22;11395;53.204;6.502;2023-05-23T06:10:42;23.90;63.30
22456;DHT22;11395;53.204;6.502;2023-05-23T06:13:08;23.90;63.30
22456;DHT22;11395;53.204;6.502;2023-05-23T06:15:36;23.90;64.20
22456;DHT22;11395;53.204;6.502;2023-05-23T06:18:02;23.80;63.30
22456;DHT22;11395;53.204;6.502;2023-05-23T06:20:30;23.90;63.20
22456;DHT22;11395;53.204;6.502;2023-05-23T06:22:59;23.70;63.10
22456;DHT22;11395;53.204;6.502;2023-05-23T06:25:26;23.80;63.10
22456;DHT22;11395;53.204;6.502;2023-05-23T06:27:52;23.80;63.80
22456;DHT22;11395;53.204;6.502;2023-05-23T06:30:18;23.80;63.70
22456;DHT22;11395;53.204;6.502;2023-05-23T06:32:44;23.80;63.80
22456;DHT22;11395;53.204;6.502;2023-05-23T06:35:10;23.80;63.40
22456;DHT22;11395;53.204;6.502;2023-05-23T06:37:36;24.00;63.00
22456;DHT22;11395;53.204;6.502;2023-05-23T06:40:05;24.00;63.00
22456;DHT22;11395;53.204;6.502;2023-05-23T06:42:31;24.00;62.90
22456;DHT22;11395;53.204;6.502;2023-05-23T06:45:10;24.10;62.90
22456;DHT22;11395;53.204;6.502;2023-05-23T06:47:37;24.10;62.60
22456;DHT22;11395;53.204;6.502;2023-05-23T06:50:04;24.10;62.70
22456;DHT22;11395;53.204;6.502;2023-05-23T06:52:31;24.10;62.60
22456;DHT22;11395;53.204;6.502;2023-05-23T06:54:58;24.10;62.40
22456;DHT22;11395;53.204;6.502;2023-05-23T06:57:24;24.20;62.20
22456;DHT22;11395;53.204;6.502;2023-05-23T06:59:51;24.10;62.50
22456;DHT22;11395;53.204;6.502;2023-05-23T07:02:17;24.10;62.70
22456;DHT22;11395;53.204;6.502;2023-05-23T07:04:44;24.20;63.00
22456;DHT22;11395;53.204;6.502;2023-05-23T07:07:16;24.10;63.20
22456;DHT22;11395;53.204;6.502;2023-05-23T07:09:43;24.10;63.60
22456;DHT22;11395;53.204;6.502;2023-05-23T07:12:15;24.20;63.20
22456;DHT22;11395;53.204;6.502;2023-05-23T07:14:43;24.10;63.20
22456;DHT22;11395;53.204;6.502;2023-05-23T07:17:10;24.10;63.10
22456;DHT22;11395;53.204;6.502;2023-05-23T07:19:38;24.10;63.10
22456;DHT22;11395;53.204;6.502;2023-05-23T07:22:05;24.10;63.10
22456;DHT22;11395;53.204;6.502;2023-05-23T07:24:32;24.20;63.10
22456;DHT22;11395;53.204;6.502;2023-05-23T07:26:59;24.10;62.90
22456;DHT22;11395;53.204;6.502;2023-05-23T07:29:26;24.10;63.60
22456;DHT22;11395;53.204;6.502;2023-05-23T07:31:53;24.10;62.80
22456;DHT22;11395;53.204;6.502;2023-05-23T07:34:20;24.10;62.90
22456;DHT22;11395;53.204;6.502;2023-05-23T07:36:52;24.00;62.70
22456;DHT22;11395;53.204;6.502;2023-05-23T07:39:19;24.10;62.80
22456;DHT22;11395;53.204;6.502;2023-05-23T07:41:48;23.90;62.60
22456;DHT22;11395;53.204;6.502;2023-05-23T07:44:17;24.00;62.70
22456;DHT22;11395;53.204;6.502;2023-05-23T07:46:43;24.10;62.50
22456;DHT22;11395;53.204;6.502;2023-05-23T07:49:09;24.20;62.40
22456;DHT22;11395;53.204;6.502;2023-05-23T07:51:36;24.20;62.30
22456;DHT22;11395;53.204;6.502;2023-05-23T07:54:02;24.30;63.10
22456;DHT22;11395;53.204;6.502;2023-05-23T07:56:28;24.30;62.10
22456;DHT22;11395;53.204;6.502;2023-05-23T07:58:55;24.40;62.00
22456;DHT22;11395;53.204;6.502;2023-05-23T08:01:22;24.40;61.80
22456;DHT22;11395;53.204;6.502;2023-05-23T08:04:01;24.60;61.80
22456;DHT22;11395;53.204;6.502;2023-05-23T08:06:31;24.60;61.50
22456;DHT22;11395;53.204;6.502;2023-05-23T08:09:01;24.70;61.30
22456;DHT22;11395;53.204;6.502;2023-05-23T08:11:28;24.80;60.90
22456;DHT22;11395;53.204;6.502;2023-05-23T08:13:55;25.60;59.90
22456;DHT22;11395;53.204;6.502;2023-05-23T08:16:44;26.70;57.90
22456;DHT22;11395;53.204;6.502;2023-05-23T08:19:16;27.60;56.10
22456;DHT22;11395;53.204;6.502;2023-05-23T08:21:43;27.70;54.70
22456;DHT22;11395;53.204;6.502;2023-05-23T08:24:09;27.20;55.40
22456;DHT22;11395;53.204;6.502;2023-05-23T08:26:40;26.70;56.10
22456;DHT22;11395;53.204;6.502;2023-05-23T08:29:09;26.30;56.20
22456;DHT22;11395;53.204;6.502;2023-05-23T08:31:36;26.10;56.80
22456;DHT22;11395;53.204;6.502;2023-05-23T08:34:02;26.10;57.40
22456;DHT22;11395;53.204;6.502;2023-05-23T08:36:29;26.50;57.00
22456;DHT22;11395;53.204;6.502;2023-05-23T08:38:59;26.50;56.20
22456;DHT22;11395;53.204;6.502;2023-05-23T08:41:31;26.40;56.40
22456;DHT22;11395;53.204;6.502;2023-05-23T08:44:02;26.30;56.70
22456;DHT22;11395;53.204;6.502;2023-05-23T08:46:33;26.30;57.20
22456;DHT22;11395;53.204;6.502;2023-05-23T08:49:04;26.20;56.60
22456;DHT22;11395;53.204;6.502;2023-05-23T08:51:35;26.00;56.50
22456;DHT22;11395;53.204;6.502;2023-05-23T08:54:06;26.00;57.10
22456;DHT22;11395;53.204;6.502;2023-05-23T08:56:35;26.00;56.70
22456;DHT22;11395;53.204;6.502;2023-05-23T08:59:01;26.00;56.80
22456;DHT22;11395;53.204;6.502;2023-05-23T09:01:29;25.90;57.00
22456;DHT22;11395;53.204;6.502;2023-05-23T09:04:00;25.80;57.20
22456;DHT22;11395;53.204;6.502;2023-05-23T09:06:38;25.60;57.40
22456;DHT22;11395;53.204;6.502;2023-05-23T09:09:05;25.50;57.60
22456;DHT22;11395;53.204;6.502;2023-05-23T09:11:32;25.50;57.70
22456;DHT22;11395;53.204;6.502;2023-05-23T09:14:01;25.40;58.00
22456;DHT22;11395;53.204;6.502;2023-05-23T09:16:32;25.40;57.90
22456;DHT22;11395;53.204;6.502;2023-05-23T09:19:09;25.30;57.90
22456;DHT22;11395;53.204;6.502;2023-05-23T09:21:41;25.30;57.90
22456;DHT22;11395;53.204;6.502;2023-05-23T09:24:14;25.30;58.00
22456;DHT22;11395;53.204;6.502;2023-05-23T09:26:41;25.30;58.20
22456;DHT22;11395;53.204;6.502;2023-05-23T09:29:11;25.30;58.20
22456;DHT22;11395;53.204;6.502;2023-05-23T09:31:37;25.40;58.10
22456;DHT22;11395;53.204;6.502;2023-05-23T09:34:04;25.40;57.90
22456;DHT22;11395;53.204;6.502;2023-05-23T09:36:32;25.40;57.60
22456;DHT22;11395;53.204;6.502;2023-05-23T09:39:02;25.40;57.80
22456;DHT22;11395;53.204;6.502;2023-05-23T09:41:33;25.30;57.90
22456;DHT22;11395;53.204;6.502;2023-05-23T09:44:05;25.30;58.00
22456;DHT22;11395;53.204;6.502;2023-05-23T09:46:34;25.20;58.20
22456;DHT22;11395;53.204;6.502;2023-05-23T09:49:01;25.20;58.10
22456;DHT22;11395;53.204;6.502;2023-05-23T09:51:28;25.20;58.20
22456;DHT22;11395;53.204;6.502;2023-05-23T09:53:54;25.30;58.10
22456;DHT22;11395;53.204;6.502;2023-05-23T09:56:22;25.10;57.80
22456;DHT22;11395;53.204;6.502;2023-05-23T09:58:49;25.30;58.10
22456;DHT22;11395;53.204;6.502;2023-05-23T10:01:16;25.30;57.90
22456;DHT22;11395;53.204;6.502;2023-05-23T10:03:48;25.30;58.00
22456;DHT22;11395;53.204;6.502;2023-05-23T10:08:58;25.30;57.80
22456;DHT22;11395;53.204;6.502;2023-05-23T10:14:06;25.30;57.80
22456;DHT22;11395;53.204;6.502;2023-05-23T10:16:53;25.30;57.60
22456;DHT22;11395;53.204;6.502;2023-05-23T10:19:29;25.20;57.50
22456;DHT22;11395;53.204;6.502;2023-05-23T10:22:00;25.20;57.30
22456;DHT22;11395;53.204;6.502;2023-05-23T10:24:28;25.20;57.40
22456;DHT22;11395;53.204;6.502;2023-05-23T10:26:54;25.10;57.70
22456;DHT22;11395;53.204;6.502;2023-05-23T10:29:21;25.10;57.60
22456;DHT22;11395;53.204;6.502;2023-05-23T10:31:49;25.10;57.80
22456;DHT22;11395;53.204;6.502;2023-05-23T10:34:33;25.10;57.80
22456;DHT22;11395;53.204;6.502;2023-05-23T10:37:05;25.10;58.10
22456;DHT22;11395;53.204;6.502;2023-05-23T10:42:33;25.00;58.00
22456;DHT22;11395;53.204;6.502;2023-05-23T10:47:41;25.10;58.20
22456;DHT22;11395;53.204;6.502;2023-05-23T10:50:11;24.80;58.70
22456;DHT22;11395;53.204;6.502;2023-05-23T10:52:39;25.10;57.90
22456;DHT22;11395;53.204;6.502;2023-05-23T10:55:15;25.10;58.00
22456;DHT22;11395;53.204;6.502;2023-05-23T10:57:43;25.10;58.10
22456;DHT22;11395;53.204;6.502;2023-05-23T11:00:16;25.10;57.90
22456;DHT22;11395;53.204;6.502;2023-05-23T11:02:52;25.10;58.00
22456;DHT22;11395;53.204;6.502;2023-05-23T11:05:23;25.10;57.50
22456;DHT22;11395;53.204;6.502;2023-05-23T11:08:09;25.10;57.90
22456;DHT22;11395;53.204;6.502;2023-05-23T11:10:59;25.10;57.40
22456;DHT22;11395;53.204;6.502;2023-05-23T11:16:30;25.20;58.00
22456;DHT22;11395;53.204;6.502;2023-05-23T11:21:46;25.20;58.30
22456;DHT22;11395;53.204;6.502;2023-05-23T11:24:13;25.10;58.60
22456;DHT22;11395;53.204;6.502;2023-05-23T11:26:54;25.20;59.00
22456;DHT22;11395;53.204;6.502;2023-05-23T11:29:28;25.30;58.90
22456;DHT22;11395;53.204;6.502;2023-05-23T11:31:55;25.30;59.00
22456;DHT22;11395;53.204;6.502;2023-05-23T11:34:24;25.30;59.10
22456;DHT22;11395;53.204;6.502;2023-05-23T11:36:54;25.30;58.80
22456;DHT22;11395;53.204;6.502;2023-05-23T11:39:21;25.20;57.60
22456;DHT22;11395;53.204;6.502;2023-05-23T11:42:01;25.00;58.30
22456;DHT22;11395;53.204;6.502;2023-05-23T11:44:28;25.20;58.60
22456;DHT22;11395;53.204;6.502;2023-05-23T11:47:02;25.30;59.20
22456;DHT22;11395;53.204;6.502;2023-05-23T11:49:29;25.30;58.80
22456;DHT22;11395;53.204;6.502;2023-05-23T11:51:57;25.30;59.00
22456;DHT22;11395;53.204;6.502;2023-05-23T11:54:25;25.30;58.80
22456;DHT22;11395;53.204;6.502;2023-05-23T11:56:51;25.30;59.00
22456;DHT22;11395;53.204;6.502;2023-05-23T11:59:18;25.30;59.10
22456;DHT22;11395;53.204;6.502;2023-05-23T12:01:44;25.30;59.60
22456;DHT22;11395;53.204;6.502;2023-05-23T12:04:10;25.30;59.60
22456;DHT22;11395;53.204;6.502;2023-05-23T12:06:39;25.30;60.00
22456;DHT22;11395;53.204;6.502;2023-05-23T12:09:12;25.30;59.80
22456;DHT22;11395;53.204;6.502;2023-05-23T12:11:39;25.30;60.20
22456;DHT22;11395;53.204;6.502;2023-05-23T12:14:06;25.30;61.10
22456;DHT22;11395;53.204;6.502;2023-05-23T12:16:33;25.30;60.30
22456;DHT22;11395;53.204;6.502;2023-05-23T12:19:01;25.30;60.50
22456;DHT22;11395;53.204;6.502;2023-05-23T12:21:45;25.30;61.10
22456;DHT22;11395;53.204;6.502;2023-05-23T12:24:19;25.30;61.30
22456;DHT22;11395;53.204;6.502;2023-05-23T12:29:12;25.40;62.20
22456;DHT22;11395;53.204;6.502;2023-05-23T12:31:38;25.40;62.20
22456;DHT22;11395;53.204;6.502;2023-05-23T12:34:05;25.40;62.40
22456;DHT22;11395;53.204;6.502;2023-05-23T12:36:31;25.50;63.50
22456;DHT22;11395;53.204;6.502;2023-05-23T12:39:03;25.50;63.40
22456;DHT22;11395;53.204;6.502;2023-05-23T12:41:31;25.50;64.10
22456;DHT22;11395;53.204;6.502;2023-05-23T12:43:58;25.50;64.40
22456;DHT22;11395;53.204;6.502;2023-05-23T12:46:25;25.50;65.00
22456;DHT22;11395;53.204;6.502;2023-05-23T12:48:53;25.40;63.80
22456;DHT22;11395;53.204;6.502;2023-05-23T12:51:22;25.40;62.70
22456;DHT22;11395;53.204;6.502;2023-05-23T12:53:53;25.40;62.60
22456;DHT22;11395;53.204;6.502;2023-05-23T12:56:24;25.40;62.50
22456;DHT22;11395;53.204;6.502;2023-05-23T12:58:50;25.40;63.00
22456;DHT22;11395;53.204;6.502;2023-05-23T13:01:19;25.40;61.80
22456;DHT22;11395;53.204;6.502;2023-05-23T13:03:45;25.50;61.40
22456;DHT22;11395;53.204;6.502;2023-05-23T13:06:11;25.50;62.30
22456;DHT22;11395;53.204;6.502;2023-05-23T13:08:37;25.40;61.60
22456;DHT22;11395;53.204;6.502;2023-05-23T13:11:04;25.40;61.10
22456;DHT22;11395;53.204;6.502;2023-05-23T13:13:30;25.40;60.40
22456;DHT22;11395;53.204;6.502;2023-05-23T13:15:58;25.40;60.10
22456;DHT22;11395;53.204;6.502;2023-05-23T13:18:24;25.40;60.10
22456;DHT22;11395;53.204;6.502;2023-05-23T13:20:51;25.40;60.50
22456;DHT22;11395;53.204;6.502;2023-05-23T13:23:17;25.30;60.00
22456;DHT22;11395;53.204;6.502;2023-05-23T13:25:43;25.30;59.70
22456;DHT22;11395;53.204;6.502;2023-05-23T13:28:09;25.20;59.80
22456;DHT22;11395;53.204;6.502;2023-05-23T13:30:35;25.20;59.50
22456;DHT22;11395;53.204;6.502;2023-05-23T13:33:02;25.20;59.60
22456;DHT22;11395;53.204;6.502;2023-05-23T13:35:28;25.20;59.40
22456;DHT22;11395;53.204;6.502;2023-05-23T13:37:54;25.10;59.40
22456;DHT22;11395;53.204;6.502;2023-05-23T13:40:20;25.10;59.10
22456;DHT22;11395;53.204;6.502;2023-05-23T13:42:48;25.10;59.20
22456;DHT22;11395;53.204;6.502;2023-05-23T13:45:18;25.10;59.50
22456;DHT22;11395;53.204;6.502;2023-05-23T13:47:45;25.10;59.60
22456;DHT22;11395;53.204;6.502;2023-05-23T13:50:12;25.10;59.90
22456;DHT22;11395;53.204;6.502;2023-05-23T13:52:38;25.10;59.50
22456;DHT22;11395;53.204;6.502;2023-05-23T13:55:04;25.20;59.30
22456;DHT22;11395;53.204;6.502;2023-05-23T13:57:31;25.10;59.20
22456;DHT22;11395;53.204;6.502;2023-05-23T13:59:57;25.10;59.20
22456;DHT22;11395;53.204;6.502;2023-05-23T14:02:24;25.10;59.20
22456;DHT22;11395;53.204;6.502;2023-05-23T14:04:50;25.10;59.10
22456;DHT22;11395;53.204;6.502;2023-05-23T14:07:17;25.10;59.10
22456;DHT22;11395;53.204;6.502;2023-05-23T14:09:43;25.20;59.40
22456;DHT22;11395;53.204;6.502;2023-05-23T14:12:10;25.20;58.90
22456;DHT22;11395;53.204;6.502;2023-05-23T14:14:36;25.20;59.00
22456;DHT22;11395;53.204;6.502;2023-05-23T14:17:02;25.20;59.00
22456;DHT22;11395;53.204;6.502;2023-05-23T14:19:28;25.20;59.00
22456;DHT22;11395;53.204;6.502;2023-05-23T14:21:54;25.10;58.80
22456;DHT22;11395;53.204;6.502;2023-05-23T14:24:20;25.10;59.10
22456;DHT22;11395;53.204;6.502;2023-05-23T14:26:47;25.10;58.90
22456;DHT22;11395;53.204;6.502;2023-05-23T14:29:15;25.10;59.10
22456;DHT22;11395;53.204;6.502;2023-05-23T14:31:41;25.20;59.30
22456;DHT22;11395;53.204;6.502;2023-05-23T14:34:07;25.20;59.30
22456;DHT22;11395;53.204;6.502;2023-05-23T14:36:33;25.20;59.30
22456;DHT22;11395;53.204;6.502;2023-05-23T14:39:01;25.10;59.50
22456;DHT22;11395;53.204;6.502;2023-05-23T14:41:30;25.10;59.60
22456;DHT22;11395;53.204;6.502;2023-05-23T14:43:56;25.10;59.50
22456;DHT22;11395;53.204;6.502;2023-05-23T14:46:22;25.00;59.40
22456;DHT22;11395;53.204;6.502;2023-05-23T14:48:48;25.00;59.50
22456;DHT22;11395;53.204;6.502;2023-05-23T14:51:15;24.90;59.70
22456;DHT22;11395;53.204;6.502;2023-05-23T14:53:41;25.00;59.70
22456;DHT22;11395;53.204;6.502;2023-05-23T14:56:07;25.00;59.70
22456;DHT22;11395;53.204;6.502;2023-05-23T14:58:33;25.00;59.70
22456;DHT22;11395;53.204;6.502;2023-05-23T15:01:00;25.00;59.70
22456;DHT22;11395;53.204;6.502;2023-05-23T15:03:26;25.00;59.70
22456;DHT22;11395;53.204;6.502;2023-05-23T15:05:53;24.90;59.70
22456;DHT22;11395;53.204;6.502;2023-05-23T15:08:19;24.90;59.20
22456;DHT22;11395;53.204;6.502;2023-05-23T15:10:45;24.90;59.60
22456;DHT22;11395;53.204;6.502;2023-05-23T15:13:11;25.00;59.60
22456;DHT22;11395;53.204;6.502;2023-05-23T15:15:37;25.00;58.50
22456;DHT22;11395;53.204;6.502;2023-05-23T15:18:06;24.90;58.80
22456;DHT22;11395;53.204;6.502;2023-05-23T15:20:35;24.80;58.80
22456;DHT22;11395;53.204;6.502;2023-05-23T15:23:06;24.80;58.70
22456;DHT22;11395;53.204;6.502;2023-05-23T15:25:32;24.70;58.70
22456;DHT22;11395;53.204;6.502;2023-05-23T15:28:01;24.70;58.70
22456;DHT22;11395;53.204;6.502;2023-05-23T15:30:30;24.60;58.70
22456;DHT22;11395;53.204;6.502;2023-05-23T15:32:56;24.60;59.10
22456;DHT22;11395;53.204;6.502;2023-05-23T15:35:22;24.60;59.50
22456;DHT22;11395;53.204;6.502;2023-05-23T15:37:51;24.60;59.60
22456;DHT22;11395;53.204;6.502;2023-05-23T15:40:25;24.70;59.90
22456;DHT22;11395;53.204;6.502;2023-05-23T15:42:52;24.70;59.60
22456;DHT22;11395;53.204;6.502;2023-05-23T15:45:27;24.70;59.60
22456;DHT22;11395;53.204;6.502;2023-05-23T15:47:53;24.70;59.90
22456;DHT22;11395;53.204;6.502;2023-05-23T15:50:19;24.70;60.20
22456;DHT22;11395;53.204;6.502;2023-05-23T15:52:45;24.70;60.20
22456;DHT22;11395;53.204;6.502;2023-05-23T15:55:11;24.70;60.40
22456;DHT22;11395;53.204;6.502;2023-05-23T15:57:38;24.90;61.10
22456;DHT22;11395;53.204;6.502;2023-05-23T16:00:04;24.60;60.50